Preview of NWS' New Version of Forecast
This preview is not operational and should not be used for support decisions.

Terminal Aerodrome Forecast (TAF)

Issued by National Weather Service (NWS)

                            
000
FTUS42 KMFL 161506 AAA
TAFMIA
TAF AMD
KMIA 161506Z 1615/1718 30009KT P6SM SCT050 SCT250
     FM170100 00000KT P6SM FEW250
     FM171500 31007KT P6SM SKC=